NCAR-RAP Real-Time Weather Data

Output produced by METARs form (12 August 2020  18:29 UTC)
found at http://weather.rap.ucar.edu/surface/
 
KBRO 121753Z 16011KT 10SM FEW037 SCT048 BKN095 33/24 A2996 RMK AO2 SLP143 T03330239 10350 20272 50001
KBRO 121653Z 17011G18KT 10SM CLR 34/23 A2996
KBRO 121553Z 16014G20KT 10SM FEW034 33/24 A2996 RMK AO2 SLP144 T03330239
KBRO 121453Z 17014KT 10SM FEW022 SCT031 32/26 A2995
KBRO 121353Z 17010KT 10SM CLR 30/26 A2996
KBRO 121253Z 17005KT 10SM CLR 28/26 A2995
KBRO 121153Z 16005KT 10SM CLR 27/26 A2995
KBRO 121053Z 15005KT 10SM CLR 27/26 A2994
KBRO 120453Z 14006KT 10SM CLR 28/25 A2996 RMK AO2 SLP143 T02830250
KBRO 120353Z 13007KT 10SM CLR 28/25 A2995 RMK AO2 SLP141 T02830250
KBRO 120253Z 13006KT 10SM CLR 29/25 A2993 RMK AO2 SLP135 T02890250 53008
KBRO 120153Z AUTO 14008KT 10SM CLR 29/24 A2992 RMK AO2 SLP129 T02940244
KBRO 120053Z 14013KT 10SM CLR 30/24 A2991 RMK AO2 SLP127 T03000239
KBRO 112353Z 14013KT 10SM CLR 32/24 A2991 RMK AO2 SLP126 T03170244 10356 20317 56005
KBRO 112253Z 16015G20KT 10SM CLR 33/24 A2991 RMK AO2 SLP126 T03280239
KBRO 112153Z 14014G21KT 10SM FEW034 34/24 A2991 RMK AO2 SLP128 T03390244
KBRO 112053Z 13015G20KT 10SM CLR 34/23 A2992 RMK AO2 SLP131 T03390233 56016
KBRO 111953Z 16013G20KT 10SM FEW043 34/24 A2994 RMK AO2 SLP136 T03440239
KBRO 111853Z 14014G27KT 10SM CLR 35/23 A2995 RMK AO2 PK WND 15027/1853 SLP140 T03500233
KBRO 111753Z 15015G22KT 10SM FEW035 34/24 A2997 RMK AO2 SLP146 T03440239 10344 20261 58001
KBRO 111653Z 14015KT 10SM SCT036 SCT045 34/24 A2997 RMK AO2 LTG DSNT SE SLP147 T03440244
KBRO 111553Z 16010KT 10SM SCT027 33/24 A2998 RMK AO2 SLP149 T03330244
KBRO 111453Z 16012KT 10SM FEW030 31/24 A2997 RMK AO2 SLP148 T03060244 50003
KBRO 111353Z 16009KT 10SM CLR 30/25 A2998 RMK AO2 SLP150 T03000250
KBRO 111253Z 17003KT 10SM CLR 28/26 A2998 RMK AO2 SLP149 T02780256
KBRO 111153Z 16003KT 10SM CLR 27/25 A2996 RMK AO2 SLP145 T02670250 10278 20267 53006
KBRO 111053Z 15004KT 10SM CLR 27/25 A2995 RMK AO2 SLP141 T02670250
KBRO 110953Z AUTO 15006KT 10SM CLR 27/26 A2994 RMK AO2 SLP138 T02720256
KBRO 110853Z AUTO 16005KT 10SM FEW018 27/26 A2995 RMK AO2 SLP139 T02720256 58007
KBRO 110753Z AUTO 16003KT 10SM FEW023 28/25 A2997 RMK AO2 SLP146 T02780250
KBRO 110723Z AUTO 17005KT 10SM SCT021 27/26 A2997 RMK AO2 T02670256
KBRO 110706Z AUTO 16005KT 10SM BKN020 27/26 A2997 RMK AO2 T02720256
KBRO 110653Z AUTO 16004KT 10SM SCT022 27/26 A2997 RMK AO2 SLP147 T02720256
KBRO 110553Z AUTO 14007KT 10SM CLR 28/25 A2997 RMK AO2 SLP146 T02780250 10317 20272 403500250 51005
KBRO 110453Z AUTO 14004KT 10SM CLR 28/26 A2996 RMK AO2 SLP145 T02780256
KBRO 110353Z 14005KT 10SM CLR 28/25 A2996 RMK AO2 SLP144 T02830250
KBRO 110253Z 13006KT 10SM CLR 29/26 A2995 RMK AO2 SLP141 T02890256 50001
KBRO 110153Z 13008KT 10SM CLR 29/25 A2996 RMK AO2 SLP143 T02940250
KBRO 110053Z 13011KT 10SM CLR 30/24 A2995 RMK AO2 SLP141 T03000239
KBRO 102353Z 13015KT 10SM SCT032 32/24 A2995 RMK AO2 SLP140 T03170239 10350 20317 56008
KBRO 102253Z 13013KT 10SM FEW035 FEW047 32/24 A2995 RMK AO2 SLP142 T03220239
KBRO 102153Z 13012G17KT 10SM FEW041 34/24 A2996 RMK AO2 SLP144 T03390239
KBRO 102053Z 14010KT 120V180 10SM SCT042 34/23 A2997 RMK AO2 SLP148 T03390233 56017
KBRO 101953Z 15011KT 10SM FEW043 34/23 A2999 RMK AO2 SLP154 T03440233
KBRO 101853Z 12010KT 10SM FEW041 34/23 A3001 RMK AO2 SLP159 T03440233